sensor_id;sensor_type;location;lat;lon;timestamp;P1;durP1;ratioP1;P2;durP2;ratioP2
23956;SDS011;12165;45.458;11.062;2022-08-25T00:01:10;3.58;;;1.98;;
23956;SDS011;12165;45.458;11.062;2022-08-25T00:03:45;3.45;;;2.00;;
23956;SDS011;12165;45.458;11.062;2022-08-25T00:06:13;3.83;;;2.03;;
23956;SDS011;12165;45.458;11.062;2022-08-25T00:08:41;6.55;;;2.10;;
23956;SDS011;12165;45.458;11.062;2022-08-25T00:11:10;4.15;;;1.80;;
23956;SDS011;12165;45.458;11.062;2022-08-25T00:13:41;2.65;;;2.00;;
23956;SDS011;12165;45.458;11.062;2022-08-25T00:16:10;2.83;;;1.80;;
23956;SDS011;12165;45.458;11.062;2022-08-25T00:18:42;3.00;;;2.10;;
23956;SDS011;12165;45.458;11.062;2022-08-25T00:21:11;3.13;;;2.08;;
23956;SDS011;12165;45.458;11.062;2022-08-25T00:23:40;4.78;;;2.00;;
23956;SDS011;12165;45.458;11.062;2022-08-25T00:26:08;6.93;;;2.10;;
23956;SDS011;12165;45.458;11.062;2022-08-25T00:28:36;3.13;;;2.03;;
23956;SDS011;12165;45.458;11.062;2022-08-25T00:31:03;3.63;;;2.00;;
23956;SDS011;12165;45.458;11.062;2022-08-25T00:33:31;5.55;;;1.75;;
23956;SDS011;12165;45.458;11.062;2022-08-25T00:35:59;3.70;;;2.13;;
23956;SDS011;12165;45.458;11.062;2022-08-25T00:38:26;3.30;;;1.92;;
23956;SDS011;12165;45.458;11.062;2022-08-25T00:40:53;5.57;;;2.03;;
23956;SDS011;12165;45.458;11.062;2022-08-25T00:43:55;6.25;;;2.10;;
23956;SDS011;12165;45.458;11.062;2022-08-25T00:46:27;6.25;;;1.90;;
23956;SDS011;12165;45.458;11.062;2022-08-25T00:48:58;2.80;;;1.90;;
23956;SDS011;12165;45.458;11.062;2022-08-25T00:51:35;2.70;;;1.83;;
23956;SDS011;12165;45.458;11.062;2022-08-25T00:54:10;3.67;;;1.85;;
23956;SDS011;12165;45.458;11.062;2022-08-25T00:56:42;3.88;;;1.77;;
23956;SDS011;12165;45.458;11.062;2022-08-25T00:59:10;3.10;;;2.00;;
23956;SDS011;12165;45.458;11.062;2022-08-25T01:01:39;4.70;;;2.15;;
23956;SDS011;12165;45.458;11.062;2022-08-25T01:04:06;3.67;;;2.20;;
23956;SDS011;12165;45.458;11.062;2022-08-25T01:06:35;3.63;;;2.10;;
23956;SDS011;12165;45.458;11.062;2022-08-25T01:09:04;3.67;;;1.70;;
23956;SDS011;12165;45.458;11.062;2022-08-25T01:11:33;2.22;;;1.70;;
23956;SDS011;12165;45.458;11.062;2022-08-25T01:14:01;4.45;;;2.17;;
23956;SDS011;12165;45.458;11.062;2022-08-25T01:16:32;7.32;;;2.20;;
23956;SDS011;12165;45.458;11.062;2022-08-25T01:19:00;5.35;;;2.33;;
23956;SDS011;12165;45.458;11.062;2022-08-25T01:21:29;2.60;;;1.90;;
23956;SDS011;12165;45.458;11.062;2022-08-25T01:28:17;5.80;;;2.00;;
23956;SDS011;12165;45.458;11.062;2022-08-25T01:30:45;3.72;;;2.00;;
23956;SDS011;12165;45.458;11.062;2022-08-25T01:33:13;3.72;;;1.70;;
23956;SDS011;12165;45.458;11.062;2022-08-25T01:35:42;5.43;;;2.17;;
23956;SDS011;12165;45.458;11.062;2022-08-25T01:38:10;5.32;;;2.00;;
23956;SDS011;12165;45.458;11.062;2022-08-25T01:40:37;4.68;;;2.03;;
23956;SDS011;12165;45.458;11.062;2022-08-25T01:45:35;5.53;;;2.05;;
23956;SDS011;12165;45.458;11.062;2022-08-25T01:48:05;4.05;;;2.08;;
23956;SDS011;12165;45.458;11.062;2022-08-25T01:50:33;2.78;;;1.90;;
23956;SDS011;12165;45.458;11.062;2022-08-25T01:53:17;3.75;;;2.05;;
23956;SDS011;12165;45.458;11.062;2022-08-25T01:55:48;3.05;;;2.10;;
23956;SDS011;12165;45.458;11.062;2022-08-25T01:58:21;4.43;;;1.95;;
23956;SDS011;12165;45.458;11.062;2022-08-25T02:00:51;6.90;;;2.17;;
23956;SDS011;12165;45.458;11.062;2022-08-25T02:03:23;3.60;;;2.15;;
23956;SDS011;12165;45.458;11.062;2022-08-25T02:05:50;2.88;;;2.13;;
23956;SDS011;12165;45.458;11.062;2022-08-25T02:08:21;3.35;;;1.98;;
23956;SDS011;12165;45.458;11.062;2022-08-25T02:10:49;3.67;;;2.10;;
23956;SDS011;12165;45.458;11.062;2022-08-25T02:13:17;3.67;;;2.10;;
23956;SDS011;12165;45.458;11.062;2022-08-25T02:15:53;3.50;;;2.15;;
23956;SDS011;12165;45.458;11.062;2022-08-25T02:18:22;4.63;;;2.00;;
23956;SDS011;12165;45.458;11.062;2022-08-25T02:20:49;4.78;;;2.22;;
23956;SDS011;12165;45.458;11.062;2022-08-25T02:23:16;4.18;;;1.92;;
23956;SDS011;12165;45.458;11.062;2022-08-25T02:25:43;3.53;;;2.22;;
23956;SDS011;12165;45.458;11.062;2022-08-25T02:28:10;4.35;;;2.10;;
23956;SDS011;12165;45.458;11.062;2022-08-25T02:30:37;4.80;;;2.10;;
23956;SDS011;12165;45.458;11.062;2022-08-25T02:33:06;3.13;;;1.90;;
23956;SDS011;12165;45.458;11.062;2022-08-25T02:35:34;3.47;;;2.03;;
23956;SDS011;12165;45.458;11.062;2022-08-25T02:38:02;2.45;;;2.00;;
23956;SDS011;12165;45.458;11.062;2022-08-25T02:40:30;4.40;;;1.90;;
23956;SDS011;12165;45.458;11.062;2022-08-25T02:42:57;3.08;;;2.03;;
23956;SDS011;12165;45.458;11.062;2022-08-25T02:45:24;4.43;;;2.38;;
23956;SDS011;12165;45.458;11.062;2022-08-25T02:47:51;4.25;;;1.92;;
23956;SDS011;12165;45.458;11.062;2022-08-25T02:50:19;4.95;;;2.00;;
23956;SDS011;12165;45.458;11.062;2022-08-25T02:52:46;3.53;;;2.35;;
23956;SDS011;12165;45.458;11.062;2022-08-25T02:55:15;5.97;;;2.00;;
23956;SDS011;12165;45.458;11.062;2022-08-25T02:57:44;3.90;;;2.10;;
23956;SDS011;12165;45.458;11.062;2022-08-25T03:00:11;3.72;;;2.15;;
23956;SDS011;12165;45.458;11.062;2022-08-25T03:02:39;2.97;;;1.70;;
23956;SDS011;12165;45.458;11.062;2022-08-25T03:05:07;3.60;;;1.88;;
23956;SDS011;12165;45.458;11.062;2022-08-25T03:07:36;2.90;;;1.85;;
23956;SDS011;12165;45.458;11.062;2022-08-25T03:10:09;3.90;;;2.20;;
23956;SDS011;12165;45.458;11.062;2022-08-25T03:12:39;3.45;;;2.00;;
23956;SDS011;12165;45.458;11.062;2022-08-25T03:15:09;4.45;;;2.40;;
23956;SDS011;12165;45.458;11.062;2022-08-25T03:17:38;2.65;;;2.05;;
23956;SDS011;12165;45.458;11.062;2022-08-25T03:20:06;4.15;;;1.98;;
23956;SDS011;12165;45.458;11.062;2022-08-25T03:22:33;5.75;;;2.60;;
23956;SDS011;12165;45.458;11.062;2022-08-25T03:25:01;5.32;;;2.30;;
23956;SDS011;12165;45.458;11.062;2022-08-25T03:27:49;8.05;;;2.85;;
23956;SDS011;12165;45.458;11.062;2022-08-25T03:30:17;9.70;;;2.92;;
23956;SDS011;12165;45.458;11.062;2022-08-25T03:32:45;5.22;;;2.70;;
23956;SDS011;12165;45.458;11.062;2022-08-25T03:35:12;4.13;;;2.45;;
23956;SDS011;12165;45.458;11.062;2022-08-25T03:37:39;7.47;;;2.63;;
23956;SDS011;12165;45.458;11.062;2022-08-25T03:40:07;7.63;;;3.13;;
23956;SDS011;12165;45.458;11.062;2022-08-25T03:42:44;4.00;;;3.03;;
23956;SDS011;12165;45.458;11.062;2022-08-25T03:45:13;4.32;;;2.38;;
23956;SDS011;12165;45.458;11.062;2022-08-25T03:47:41;3.88;;;2.60;;
23956;SDS011;12165;45.458;11.062;2022-08-25T03:50:12;4.55;;;2.60;;
23956;SDS011;12165;45.458;11.062;2022-08-25T03:52:41;4.10;;;2.30;;
23956;SDS011;12165;45.458;11.062;2022-08-25T03:55:09;6.40;;;2.55;;
23956;SDS011;12165;45.458;11.062;2022-08-25T03:57:37;5.25;;;2.33;;
23956;SDS011;12165;45.458;11.062;2022-08-25T04:00:06;4.53;;;2.33;;
23956;SDS011;12165;45.458;11.062;2022-08-25T04:02:37;5.85;;;2.47;;
23956;SDS011;12165;45.458;11.062;2022-08-25T04:05:05;5.20;;;2.60;;
23956;SDS011;12165;45.458;11.062;2022-08-25T04:07:34;4.45;;;2.42;;
23956;SDS011;12165;45.458;11.062;2022-08-25T04:10:01;4.03;;;2.33;;
23956;SDS011;12165;45.458;11.062;2022-08-25T04:12:29;3.75;;;2.38;;
23956;SDS011;12165;45.458;11.062;2022-08-25T04:14:56;4.78;;;2.75;;
23956;SDS011;12165;45.458;11.062;2022-08-25T04:17:24;3.42;;;2.33;;
23956;SDS011;12165;45.458;11.062;2022-08-25T04:19:51;7.40;;;2.33;;
23956;SDS011;12165;45.458;11.062;2022-08-25T04:22:18;5.30;;;2.55;;
23956;SDS011;12165;45.458;11.062;2022-08-25T04:24:45;4.75;;;2.47;;
23956;SDS011;12165;45.458;11.062;2022-08-25T04:27:12;3.20;;;2.25;;
23956;SDS011;12165;45.458;11.062;2022-08-25T04:29:39;6.88;;;3.17;;
23956;SDS011;12165;45.458;11.062;2022-08-25T04:32:06;5.30;;;2.90;;
23956;SDS011;12165;45.458;11.062;2022-08-25T04:34:33;5.53;;;2.53;;
23956;SDS011;12165;45.458;11.062;2022-08-25T04:37:01;6.03;;;2.55;;
23956;SDS011;12165;45.458;11.062;2022-08-25T04:39:30;4.88;;;2.50;;
23956;SDS011;12165;45.458;11.062;2022-08-25T04:41:57;6.03;;;2.60;;
23956;SDS011;12165;45.458;11.062;2022-08-25T04:44:26;4.20;;;2.72;;
23956;SDS011;12165;45.458;11.062;2022-08-25T04:46:53;3.17;;;2.42;;
23956;SDS011;12165;45.458;11.062;2022-08-25T04:49:20;4.80;;;2.70;;
23956;SDS011;12165;45.458;11.062;2022-08-25T04:51:47;4.32;;;2.53;;
23956;SDS011;12165;45.458;11.062;2022-08-25T04:54:15;6.05;;;2.45;;
23956;SDS011;12165;45.458;11.062;2022-08-25T04:56:42;7.50;;;3.30;;
23956;SDS011;12165;45.458;11.062;2022-08-25T04:59:12;5.40;;;3.03;;
23956;SDS011;12165;45.458;11.062;2022-08-25T05:01:41;10.85;;;3.10;;
23956;SDS011;12165;45.458;11.062;2022-08-25T05:04:09;5.63;;;3.15;;
23956;SDS011;12165;45.458;11.062;2022-08-25T05:06:53;8.52;;;3.03;;
23956;SDS011;12165;45.458;11.062;2022-08-25T05:09:20;7.03;;;2.70;;
23956;SDS011;12165;45.458;11.062;2022-08-25T05:11:47;8.95;;;3.35;;
23956;SDS011;12165;45.458;11.062;2022-08-25T05:14:14;6.63;;;3.00;;
23956;SDS011;12165;45.458;11.062;2022-08-25T05:16:43;5.10;;;3.00;;
23956;SDS011;12165;45.458;11.062;2022-08-25T05:19:10;10.75;;;3.58;;
23956;SDS011;12165;45.458;11.062;2022-08-25T05:21:38;10.30;;;3.78;;
23956;SDS011;12165;45.458;11.062;2022-08-25T05:24:05;10.98;;;3.70;;
23956;SDS011;12165;45.458;11.062;2022-08-25T05:26:33;8.32;;;3.90;;
23956;SDS011;12165;45.458;11.062;2022-08-25T05:29:02;7.40;;;3.53;;
23956;SDS011;12165;45.458;11.062;2022-08-25T05:31:31;10.82;;;4.10;;
23956;SDS011;12165;45.458;11.062;2022-08-25T05:33:58;8.48;;;4.30;;
23956;SDS011;12165;45.458;11.062;2022-08-25T05:36:26;11.27;;;5.30;;
23956;SDS011;12165;45.458;11.062;2022-08-25T05:38:54;8.90;;;5.47;;
23956;SDS011;12165;45.458;11.062;2022-08-25T05:41:24;10.27;;;4.63;;
23956;SDS011;12165;45.458;11.062;2022-08-25T05:43:53;9.75;;;5.65;;
23956;SDS011;12165;45.458;11.062;2022-08-25T05:46:21;9.13;;;5.05;;
23956;SDS011;12165;45.458;11.062;2022-08-25T05:48:48;14.20;;;5.13;;
23956;SDS011;12165;45.458;11.062;2022-08-25T05:51:16;8.23;;;4.65;;
23956;SDS011;12165;45.458;11.062;2022-08-25T05:53:44;14.40;;;5.53;;
23956;SDS011;12165;45.458;11.062;2022-08-25T06:00:31;7.95;;;4.72;;
23956;SDS011;12165;45.458;11.062;2022-08-25T06:02:58;9.48;;;4.75;;
23956;SDS011;12165;45.458;11.062;2022-08-25T06:09:57;7.70;;;3.75;;
23956;SDS011;12165;45.458;11.062;2022-08-25T06:12:24;7.88;;;3.80;;
23956;SDS011;12165;45.458;11.062;2022-08-25T06:14:51;8.50;;;3.45;;
23956;SDS011;12165;45.458;11.062;2022-08-25T06:17:18;7.40;;;3.65;;
23956;SDS011;12165;45.458;11.062;2022-08-25T06:19:45;7.47;;;2.90;;
23956;SDS011;12165;45.458;11.062;2022-08-25T06:22:12;5.05;;;3.00;;
23956;SDS011;12165;45.458;11.062;2022-08-25T06:24:39;9.10;;;2.90;;
23956;SDS011;12165;45.458;11.062;2022-08-25T06:27:06;4.85;;;2.55;;
23956;SDS011;12165;45.458;11.062;2022-08-25T06:29:33;7.32;;;2.60;;
23956;SDS011;12165;45.458;11.062;2022-08-25T06:31:59;7.00;;;2.83;;
23956;SDS011;12165;45.458;11.062;2022-08-25T06:34:26;7.20;;;2.88;;
23956;SDS011;12165;45.458;11.062;2022-08-25T06:36:53;7.15;;;2.20;;
23956;SDS011;12165;45.458;11.062;2022-08-25T06:39:21;4.05;;;2.50;;
23956;SDS011;12165;45.458;11.062;2022-08-25T06:41:49;8.05;;;2.88;;
23956;SDS011;12165;45.458;11.062;2022-08-25T06:44:17;5.13;;;1.98;;
23956;SDS011;12165;45.458;11.062;2022-08-25T06:46:44;9.63;;;2.40;;
23956;SDS011;12165;45.458;11.062;2022-08-25T06:49:12;6.40;;;2.00;;
23956;SDS011;12165;45.458;11.062;2022-08-25T06:51:39;7.78;;;2.80;;
23956;SDS011;12165;45.458;11.062;2022-08-25T06:54:07;5.85;;;2.45;;
23956;SDS011;12165;45.458;11.062;2022-08-25T07:01:09;9.00;;;2.55;;
23956;SDS011;12165;45.458;11.062;2022-08-25T07:03:45;5.72;;;2.33;;
23956;SDS011;12165;45.458;11.062;2022-08-25T07:06:13;5.03;;;1.92;;
23956;SDS011;12165;45.458;11.062;2022-08-25T07:08:44;6.85;;;2.40;;
23956;SDS011;12165;45.458;11.062;2022-08-25T07:11:12;6.50;;;3.53;;
23956;SDS011;12165;45.458;11.062;2022-08-25T07:13:42;4.50;;;2.30;;
23956;SDS011;12165;45.458;11.062;2022-08-25T07:16:09;5.22;;;2.40;;
23956;SDS011;12165;45.458;11.062;2022-08-25T07:18:41;5.03;;;2.35;;
23956;SDS011;12165;45.458;11.062;2022-08-25T07:21:09;5.10;;;2.10;;
23956;SDS011;12165;45.458;11.062;2022-08-25T07:23:38;7.28;;;2.88;;
23956;SDS011;12165;45.458;11.062;2022-08-25T07:26:14;5.28;;;1.90;;
23956;SDS011;12165;45.458;11.062;2022-08-25T07:29:08;5.15;;;2.22;;
23956;SDS011;12165;45.458;11.062;2022-08-25T07:31:38;4.07;;;1.98;;
23956;SDS011;12165;45.458;11.062;2022-08-25T07:34:05;6.75;;;2.33;;
23956;SDS011;12165;45.458;11.062;2022-08-25T07:36:51;6.82;;;1.95;;
23956;SDS011;12165;45.458;11.062;2022-08-25T07:39:20;8.23;;;2.05;;
23956;SDS011;12165;45.458;11.062;2022-08-25T07:41:48;5.55;;;2.30;;
23956;SDS011;12165;45.458;11.062;2022-08-25T07:44:18;6.65;;;2.00;;
23956;SDS011;12165;45.458;11.062;2022-08-25T07:46:47;5.18;;;2.60;;
23956;SDS011;12165;45.458;11.062;2022-08-25T07:49:17;7.47;;;2.10;;
23956;SDS011;12165;45.458;11.062;2022-08-25T07:51:49;3.00;;;2.08;;
23956;SDS011;12165;45.458;11.062;2022-08-25T07:54:31;6.90;;;2.17;;
23956;SDS011;12165;45.458;11.062;2022-08-25T07:57:03;12.27;;;2.40;;
23956;SDS011;12165;45.458;11.062;2022-08-25T07:59:34;8.85;;;2.65;;
23956;SDS011;12165;45.458;11.062;2022-08-25T08:02:06;7.47;;;2.30;;
23956;SDS011;12165;45.458;11.062;2022-08-25T08:04:45;6.18;;;2.30;;
23956;SDS011;12165;45.458;11.062;2022-08-25T08:07:18;7.50;;;2.13;;
23956;SDS011;12165;45.458;11.062;2022-08-25T08:09:48;3.75;;;1.92;;
23956;SDS011;12165;45.458;11.062;2022-08-25T08:12:36;6.47;;;1.70;;
23956;SDS011;12165;45.458;11.062;2022-08-25T08:15:03;6.28;;;2.50;;
23956;SDS011;12165;45.458;11.062;2022-08-25T08:17:36;6.20;;;2.20;;
23956;SDS011;12165;45.458;11.062;2022-08-25T08:20:04;6.90;;;2.08;;
23956;SDS011;12165;45.458;11.062;2022-08-25T08:22:39;6.13;;;2.08;;
23956;SDS011;12165;45.458;11.062;2022-08-25T08:25:08;6.70;;;2.00;;
23956;SDS011;12165;45.458;11.062;2022-08-25T08:27:44;10.55;;;2.00;;
23956;SDS011;12165;45.458;11.062;2022-08-25T08:30:11;2.78;;;1.58;;
23956;SDS011;12165;45.458;11.062;2022-08-25T08:32:39;5.63;;;1.90;;
23956;SDS011;12165;45.458;11.062;2022-08-25T08:35:26;7.78;;;2.65;;
23956;SDS011;12165;45.458;11.062;2022-08-25T08:37:56;7.07;;;2.33;;
23956;SDS011;12165;45.458;11.062;2022-08-25T08:40:23;8.57;;;2.55;;
23956;SDS011;12165;45.458;11.062;2022-08-25T08:43:04;9.45;;;3.47;;
23956;SDS011;12165;45.458;11.062;2022-08-25T08:45:50;4.80;;;2.70;;
23956;SDS011;12165;45.458;11.062;2022-08-25T08:54:00;8.50;;;2.50;;
23956;SDS011;12165;45.458;11.062;2022-08-25T08:57:02;7.15;;;2.63;;
23956;SDS011;12165;45.458;11.062;2022-08-25T08:59:47;7.47;;;3.13;;
23956;SDS011;12165;45.458;11.062;2022-08-25T09:02:51;6.07;;;2.30;;
23956;SDS011;12165;45.458;11.062;2022-08-25T09:05:19;4.72;;;2.25;;
23956;SDS011;12165;45.458;11.062;2022-08-25T09:07:51;6.93;;;2.60;;
23956;SDS011;12165;45.458;11.062;2022-08-25T09:10:22;6.50;;;2.55;;
23956;SDS011;12165;45.458;11.062;2022-08-25T09:15:54;9.80;;;2.40;;
23956;SDS011;12165;45.458;11.062;2022-08-25T09:32:39;7.65;;;2.88;;
23956;SDS011;12165;45.458;11.062;2022-08-25T09:35:21;5.57;;;2.75;;
23956;SDS011;12165;45.458;11.062;2022-08-25T09:38:15;6.75;;;2.67;;
23956;SDS011;12165;45.458;11.062;2022-08-25T09:40:42;4.97;;;2.45;;
23956;SDS011;12165;45.458;11.062;2022-08-25T09:44:02;7.53;;;3.00;;
23956;SDS011;12165;45.458;11.062;2022-08-25T09:48:42;6.00;;;2.83;;
23956;SDS011;12165;45.458;11.062;2022-08-25T09:51:26;4.10;;;2.42;;
23956;SDS011;12165;45.458;11.062;2022-08-25T10:01:32;4.15;;;2.35;;
23956;SDS011;12165;45.458;11.062;2022-08-25T10:04:05;4.28;;;2.40;;
23956;SDS011;12165;45.458;11.062;2022-08-25T10:06:35;6.75;;;2.53;;
23956;SDS011;12165;45.458;11.062;2022-08-25T10:09:12;3.80;;;2.30;;
23956;SDS011;12165;45.458;11.062;2022-08-25T10:11:48;8.52;;;2.75;;
23956;SDS011;12165;45.458;11.062;2022-08-25T10:14:35;6.55;;;3.30;;
23956;SDS011;12165;45.458;11.062;2022-08-25T10:17:17;7.70;;;2.60;;
23956;SDS011;12165;45.458;11.062;2022-08-25T10:20:18;3.92;;;2.58;;
23956;SDS011;12165;45.458;11.062;2022-08-25T10:22:45;7.95;;;2.60;;
23956;SDS011;12165;45.458;11.062;2022-08-25T10:25:38;10.13;;;2.50;;
23956;SDS011;12165;45.458;11.062;2022-08-25T10:28:26;6.10;;;2.60;;
23956;SDS011;12165;45.458;11.062;2022-08-25T10:31:17;6.05;;;2.58;;
23956;SDS011;12165;45.458;11.062;2022-08-25T10:34:11;7.68;;;2.85;;
23956;SDS011;12165;45.458;11.062;2022-08-25T10:37:04;11.27;;;3.15;;
23956;SDS011;12165;45.458;11.062;2022-08-25T10:42:38;5.75;;;2.88;;
23956;SDS011;12165;45.458;11.062;2022-08-25T10:45:24;6.80;;;2.88;;
23956;SDS011;12165;45.458;11.062;2022-08-25T10:48:36;6.53;;;2.58;;
23956;SDS011;12165;45.458;11.062;2022-08-25T10:54:09;4.53;;;2.50;;
23956;SDS011;12165;45.458;11.062;2022-08-25T10:59:51;6.38;;;2.47;;
23956;SDS011;12165;45.458;11.062;2022-08-25T11:08:15;6.40;;;2.30;;
23956;SDS011;12165;45.458;11.062;2022-08-25T11:15:30;7.05;;;2.58;;
23956;SDS011;12165;45.458;11.062;2022-08-25T11:18:15;6.78;;;2.80;;
23956;SDS011;12165;45.458;11.062;2022-08-25T11:20:44;6.88;;;2.72;;
23956;SDS011;12165;45.458;11.062;2022-08-25T11:23:26;7.38;;;2.28;;
23956;SDS011;12165;45.458;11.062;2022-08-25T11:26:00;4.03;;;2.35;;
23956;SDS011;12165;45.458;11.062;2022-08-25T11:31:38;5.47;;;2.30;;
23956;SDS011;12165;45.458;11.062;2022-08-25T11:34:08;4.78;;;2.50;;
23956;SDS011;12165;45.458;11.062;2022-08-25T11:36:47;4.88;;;2.30;;
23956;SDS011;12165;45.458;11.062;2022-08-25T11:46:25;3.72;;;2.40;;
23956;SDS011;12165;45.458;11.062;2022-08-25T11:56:32;5.65;;;2.13;;
23956;SDS011;12165;45.458;11.062;2022-08-25T11:59:05;4.03;;;2.10;;
23956;SDS011;12165;45.458;11.062;2022-08-25T12:07:15;4.93;;;2.20;;
23956;SDS011;12165;45.458;11.062;2022-08-25T12:27:24;2.50;;;2.20;;
23956;SDS011;12165;45.458;11.062;2022-08-25T12:32:50;3.50;;;2.08;;
23956;SDS011;12165;45.458;11.062;2022-08-25T12:42:35;7.13;;;2.42;;
23956;SDS011;12165;45.458;11.062;2022-08-25T12:47:46;4.72;;;2.30;;
23956;SDS011;12165;45.458;11.062;2022-08-25T12:53:06;4.95;;;2.55;;
23956;SDS011;12165;45.458;11.062;2022-08-25T12:55:43;4.90;;;2.70;;
23956;SDS011;12165;45.458;11.062;2022-08-25T12:58:13;6.00;;;2.43;;
23956;SDS011;12165;45.458;11.062;2022-08-25T13:03:26;6.65;;;2.60;;
23956;SDS011;12165;45.458;11.062;2022-08-25T13:12:04;5.05;;;2.22;;
23956;SDS011;12165;45.458;11.062;2022-08-25T13:14:44;5.82;;;2.60;;
23956;SDS011;12165;45.458;11.062;2022-08-25T13:17:24;5.13;;;2.75;;
23956;SDS011;12165;45.458;11.062;2022-08-25T13:20:16;4.20;;;2.30;;
23956;SDS011;12165;45.458;11.062;2022-08-25T13:27:23;7.85;;;2.90;;
23956;SDS011;12165;45.458;11.062;2022-08-25T13:29:54;6.70;;;2.58;;
23956;SDS011;12165;45.458;11.062;2022-08-25T13:32:25;7.05;;;2.80;;
23956;SDS011;12165;45.458;11.062;2022-08-25T13:35:14;5.32;;;2.90;;
23956;SDS011;12165;45.458;11.062;2022-08-25T13:37:45;6.07;;;2.47;;
23956;SDS011;12165;45.458;11.062;2022-08-25T13:40:14;7.47;;;2.67;;
23956;SDS011;12165;45.458;11.062;2022-08-25T13:47:05;9.07;;;2.50;;
23956;SDS011;12165;45.458;11.062;2022-08-25T13:49:44;8.77;;;3.05;;
23956;SDS011;12165;45.458;11.062;2022-08-25T13:52:18;5.28;;;2.63;;
23956;SDS011;12165;45.458;11.062;2022-08-25T13:54:58;6.82;;;2.83;;
23956;SDS011;12165;45.458;11.062;2022-08-25T13:57:30;11.80;;;2.92;;
23956;SDS011;12165;45.458;11.062;2022-08-25T14:00:03;5.40;;;2.50;;
23956;SDS011;12165;45.458;11.062;2022-08-25T14:02:48;6.15;;;3.10;;
23956;SDS011;12165;45.458;11.062;2022-08-25T14:05:34;6.60;;;2.72;;
23956;SDS011;12165;45.458;11.062;2022-08-25T14:08:24;4.43;;;3.08;;
23956;SDS011;12165;45.458;11.062;2022-08-25T14:13:41;4.90;;;2.70;;
23956;SDS011;12165;45.458;11.062;2022-08-25T14:16:17;6.13;;;2.42;;
23956;SDS011;12165;45.458;11.062;2022-08-25T14:18:51;6.57;;;2.72;;
23956;SDS011;12165;45.458;11.062;2022-08-25T14:21:24;4.53;;;2.93;;
23956;SDS011;12165;45.458;11.062;2022-08-25T14:23:53;6.63;;;2.85;;
23956;SDS011;12165;45.458;11.062;2022-08-25T14:26:22;4.72;;;2.40;;
23956;SDS011;12165;45.458;11.062;2022-08-25T14:28:51;5.82;;;2.88;;
23956;SDS011;12165;45.458;11.062;2022-08-25T14:33:51;6.38;;;3.00;;
23956;SDS011;12165;45.458;11.062;2022-08-25T14:40:52;5.55;;;2.83;;
23956;SDS011;12165;45.458;11.062;2022-08-25T14:43:19;5.35;;;2.70;;
23956;SDS011;12165;45.458;11.062;2022-08-25T14:50:23;7.25;;;2.95;;
23956;SDS011;12165;45.458;11.062;2022-08-25T14:52:50;3.85;;;2.80;;
23956;SDS011;12165;45.458;11.062;2022-08-25T14:55:17;5.97;;;2.97;;
23956;SDS011;12165;45.458;11.062;2022-08-25T14:57:57;8.27;;;3.05;;
23956;SDS011;12165;45.458;11.062;2022-08-25T15:00:25;4.72;;;3.00;;
23956;SDS011;12165;45.458;11.062;2022-08-25T15:02:53;11.57;;;3.50;;
23956;SDS011;12165;45.458;11.062;2022-08-25T15:05:22;21.42;;;4.18;;
23956;SDS011;12165;45.458;11.062;2022-08-25T15:12:25;7.93;;;3.35;;
23956;SDS011;12165;45.458;11.062;2022-08-25T15:15:12;9.02;;;3.45;;
23956;SDS011;12165;45.458;11.062;2022-08-25T15:17:39;7.07;;;3.10;;
23956;SDS011;12165;45.458;11.062;2022-08-25T15:20:10;5.80;;;3.47;;
23956;SDS011;12165;45.458;11.062;2022-08-25T15:22:37;8.80;;;3.08;;
23956;SDS011;12165;45.458;11.062;2022-08-25T15:25:07;4.90;;;3.30;;
23956;SDS011;12165;45.458;11.062;2022-08-25T15:27:34;6.07;;;3.55;;
23956;SDS011;12165;45.458;11.062;2022-08-25T15:30:02;5.78;;;4.00;;
23956;SDS011;12165;45.458;11.062;2022-08-25T15:32:30;11.18;;;6.13;;
23956;SDS011;12165;45.458;11.062;2022-08-25T15:34:57;7.10;;;3.40;;
23956;SDS011;12165;45.458;11.062;2022-08-25T15:41:44;10.57;;;4.55;;
23956;SDS011;12165;45.458;11.062;2022-08-25T15:44:14;8.27;;;3.33;;
23956;SDS011;12165;45.458;11.062;2022-08-25T15:46:41;8.32;;;3.25;;
23956;SDS011;12165;45.458;11.062;2022-08-25T15:49:15;6.85;;;3.25;;
23956;SDS011;12165;45.458;11.062;2022-08-25T15:51:49;6.13;;;3.10;;
23956;SDS011;12165;45.458;11.062;2022-08-25T15:54:20;8.88;;;3.83;;
23956;SDS011;12165;45.458;11.062;2022-08-25T15:56:48;7.68;;;4.05;;
23956;SDS011;12165;45.458;11.062;2022-08-25T16:03:30;4.97;;;3.40;;
23956;SDS011;12165;45.458;11.062;2022-08-25T16:05:57;6.85;;;4.32;;
23956;SDS011;12165;45.458;11.062;2022-08-25T16:08:24;6.78;;;4.03;;
23956;SDS011;12165;45.458;11.062;2022-08-25T16:10:51;7.35;;;3.95;;
23956;SDS011;12165;45.458;11.062;2022-08-25T16:17:43;7.22;;;3.35;;
23956;SDS011;12165;45.458;11.062;2022-08-25T16:20:16;6.13;;;3.13;;
23956;SDS011;12165;45.458;11.062;2022-08-25T16:22:45;6.03;;;3.53;;
23956;SDS011;12165;45.458;11.062;2022-08-25T16:29:33;6.70;;;3.10;;
23956;SDS011;12165;45.458;11.062;2022-08-25T16:32:02;5.13;;;3.05;;
23956;SDS011;12165;45.458;11.062;2022-08-25T16:34:30;6.05;;;3.00;;
23956;SDS011;12165;45.458;11.062;2022-08-25T16:41:26;11.18;;;3.70;;
23956;SDS011;12165;45.458;11.062;2022-08-25T16:44:01;8.43;;;3.72;;
23956;SDS011;12165;45.458;11.062;2022-08-25T16:46:30;7.78;;;3.83;;
23956;SDS011;12165;45.458;11.062;2022-08-25T16:49:01;7.13;;;3.38;;
23956;SDS011;12165;45.458;11.062;2022-08-25T16:51:30;6.07;;;3.45;;
23956;SDS011;12165;45.458;11.062;2022-08-25T16:53:57;6.50;;;3.30;;
23956;SDS011;12165;45.458;11.062;2022-08-25T16:56:48;3.50;;;3.15;;
23956;SDS011;12165;45.458;11.062;2022-08-25T16:59:20;4.93;;;3.33;;
23956;SDS011;12165;45.458;11.062;2022-08-25T17:01:49;6.10;;;3.33;;
23956;SDS011;12165;45.458;11.062;2022-08-25T17:04:18;6.68;;;3.30;;
23956;SDS011;12165;45.458;11.062;2022-08-25T17:06:46;8.38;;;3.17;;
23956;SDS011;12165;45.458;11.062;2022-08-25T17:09:17;8.00;;;3.55;;
23956;SDS011;12165;45.458;11.062;2022-08-25T17:11:49;3.75;;;3.05;;
23956;SDS011;12165;45.458;11.062;2022-08-25T17:14:19;6.88;;;3.00;;
23956;SDS011;12165;45.458;11.062;2022-08-25T17:16:46;9.30;;;3.67;;
23956;SDS011;12165;45.458;11.062;2022-08-25T17:23:35;10.93;;;3.75;;
23956;SDS011;12165;45.458;11.062;2022-08-25T17:26:05;6.72;;;3.50;;
23956;SDS011;12165;45.458;11.062;2022-08-25T17:28:38;7.20;;;3.50;;
23956;SDS011;12165;45.458;11.062;2022-08-25T17:31:06;10.05;;;3.47;;
23956;SDS011;12165;45.458;11.062;2022-08-25T17:37:46;8.82;;;3.28;;
23956;SDS011;12165;45.458;11.062;2022-08-25T17:40:15;9.75;;;3.53;;
23956;SDS011;12165;45.458;11.062;2022-08-25T17:42:42;6.38;;;2.92;;
23956;SDS011;12165;45.458;11.062;2022-08-25T17:45:10;7.45;;;3.47;;
23956;SDS011;12165;45.458;11.062;2022-08-25T17:47:37;5.30;;;3.00;;
23956;SDS011;12165;45.458;11.062;2022-08-25T17:50:04;5.90;;;3.40;;
23956;SDS011;12165;45.458;11.062;2022-08-25T17:52:31;6.45;;;2.90;;
23956;SDS011;12165;45.458;11.062;2022-08-25T17:54:58;5.70;;;3.00;;
23956;SDS011;12165;45.458;11.062;2022-08-25T17:57:25;10.75;;;3.80;;
23956;SDS011;12165;45.458;11.062;2022-08-25T17:59:52;8.75;;;3.80;;
23956;SDS011;12165;45.458;11.062;2022-08-25T18:02:19;10.52;;;3.60;;
23956;SDS011;12165;45.458;11.062;2022-08-25T18:04:47;9.48;;;3.60;;
23956;SDS011;12165;45.458;11.062;2022-08-25T18:07:14;7.85;;;3.90;;
23956;SDS011;12165;45.458;11.062;2022-08-25T18:09:42;7.68;;;4.07;;
23956;SDS011;12165;45.458;11.062;2022-08-25T18:12:10;8.27;;;4.35;;
23956;SDS011;12165;45.458;11.062;2022-08-25T18:14:37;12.57;;;4.13;;